Jordans Store, Texas
Current Conditions -  °F | °C
As of 7:15 AM on Sunday 23 Nov 2014 (Local Time) from KOCH Reporting Station
Overcast Overcast  
Wind Chill: 63°   Ceiling: 2000
Heat Index: 63°   Visibility: 8mi
Dew Point: 61°   Wind: 6mph
Humidity: 94%   Direction: 210°SSW
Pressure: 29.63"   Gusts: NA
Location:  31.7022°N, 93.9592°W
Report Text: KOCH 231315Z AUTO 21005KT 8SM SCT007 BKN020 OVC050 17/16 A2963 RMK AO1 P0003
Loading
Personal Weather Stations






























Interactive Weather Map New forecast layout! Learn more

10-Day Weather Forecast

Advertisements
Track Severe Weather on mobile